Time;durP1;ratioP1;P1;durP2;ratioP2;P2;SDS_P1;SDS_P2;PMS_P1;PMS_P2;Temp;Humidity;BMP_temperature;BMP_pressure;BME280_temperature;BME280_humidity;BME280_pressure;Samples;Min_cycle;Max_cycle;Signal;HPM_P1;HPM_P2
2023/08/17 00:00:44;;;;;;;9.45;5.78;;;19.60;99.90;;;;;;4965801;28;20203;-38
2023/08/17 00:03:11;;;;;;;5.97;5.43;;;19.60;99.90;;;;;;4964989;28;20190;-35
2023/08/17 00:05:37;;;;;;;6.38;5.65;;;19.60;99.90;;;;;;4968622;28;20215;-40
2023/08/17 00:08:03;;;;;;;6.13;5.45;;;19.70;99.90;;;;;;4977099;28;20180;-38
2023/08/17 00:10:29;;;;;;;6.13;5.63;;;19.70;99.90;;;;;;4969780;28;20231;-37
2023/08/17 00:12:55;;;;;;;5.10;4.60;;;19.70;99.90;;;;;;4992708;28;20198;-35
2023/08/17 00:15:21;;;;;;;5.30;4.80;;;19.70;99.90;;;;;;4970142;28;20180;-37
2023/08/17 00:17:46;;;;;;;5.70;5.03;;;19.60;99.90;;;;;;5004686;28;20192;-35
2023/08/17 00:20:12;;;;;;;6.53;5.53;;;19.60;99.90;;;;;;4985021;28;20182;-39
2023/08/17 00:22:38;;;;;;;7.00;5.55;;;19.60;99.90;;;;;;4988278;28;20187;-37
2023/08/17 00:25:05;;;;;;;7.57;6.53;;;19.50;99.90;;;;;;4980661;28;20186;-35
2023/08/17 00:27:34;;;;;;;9.80;7.13;;;19.50;99.90;;;;;;4977055;28;20285;-32
2023/08/17 00:29:59;;;;;;;9.98;7.82;;;19.50;99.90;;;;;;4976911;28;20176;-35
2023/08/17 00:32:25;;;;;;;25.58;9.38;;;19.50;99.90;;;;;;4968142;28;20297;-39
2023/08/17 00:34:51;;;;;;;21.35;8.55;;;19.40;99.90;;;;;;4977031;28;20240;-35
2023/08/17 00:37:19;;;;;;;22.00;8.68;;;19.30;99.90;;;;;;4971121;28;20183;-34
2023/08/17 00:39:45;;;;;;;11.60;7.75;;;19.20;99.90;;;;;;4971813;28;20188;-39
2023/08/17 00:42:11;;;;;;;28.10;9.45;;;19.20;99.90;;;;;;4985788;28;20230;-37
2023/08/17 00:44:37;;;;;;;17.10;9.25;;;19.20;99.90;;;;;;4968599;28;20206;-37
2023/08/17 00:47:07;;;;;;;30.67;8.88;;;19.20;99.90;;;;;;4970249;28;20250;-37
2023/08/17 00:49:37;;;;;;;26.27;7.88;;;19.20;99.90;;;;;;4970118;28;20210;-37
2023/08/17 00:52:05;;;;;;;22.27;7.57;;;19.20;99.90;;;;;;4969332;28;20200;-33
2023/08/17 00:54:31;;;;;;;16.95;8.98;;;19.10;99.90;;;;;;4971892;28;20187;-37
2023/08/17 00:56:57;;;;;;;19.48;8.80;;;19.10;99.90;;;;;;4967742;28;20204;-37
2023/08/17 00:59:23;;;;;;;22.50;8.73;;;19.20;99.90;;;;;;4985150;28;20187;-38
2023/08/17 01:01:50;;;;;;;19.20;7.15;;;19.10;99.90;;;;;;4984143;28;20274;-36
2023/08/17 01:04:15;;;;;;;20.08;7.85;;;19.10;99.90;;;;;;4970796;28;20211;-36
2023/08/17 01:06:41;;;;;;;12.60;7.28;;;19.10;99.90;;;;;;4985469;28;20277;-37
2023/08/17 01:09:08;;;;;;;18.52;6.85;;;19.10;99.90;;;;;;4982382;28;20182;-38
2023/08/17 01:11:47;;;;;;;27.70;8.27;;;19.10;99.90;;;;;;4971001;28;20207;-37
2023/08/17 01:14:37;;;;;;;17.70;7.82;;;19.10;99.90;;;;;;4968474;28;20298;-39
2023/08/17 01:17:18;;;;;;;14.82;8.43;;;19.10;99.90;;;;;;4964454;28;20203;-35
2023/08/17 01:19:45;;;;;;;8.60;7.88;;;19.10;99.90;;;;;;4977595;28;20266;-35
2023/08/17 01:22:17;;;;;;;9.13;7.68;;;19.10;99.90;;;;;;4976797;28;20694;-38
2023/08/17 01:24:44;;;;;;;6.68;6.03;;;19.10;99.90;;;;;;4970921;28;20191;-37
2023/08/17 01:27:10;;;;;;;7.82;6.75;;;19.10;99.90;;;;;;4975890;28;20202;-36
2023/08/17 01:29:37;;;;;;;8.20;7.40;;;19.20;99.90;;;;;;4970151;28;20184;-37
2023/08/17 01:32:14;;;;;;;6.38;5.78;;;19.20;99.90;;;;;;4974157;28;20199;-40
2023/08/17 01:35:01;;;;;;;11.77;7.03;;;19.10;99.90;;;;;;4970212;28;20179;-38
2023/08/17 01:37:31;;;;;;;8.65;7.35;;;19.10;99.90;;;;;;4967155;28;20196;-37
2023/08/17 01:39:59;;;;;;;12.85;7.53;;;19.20;99.90;;;;;;4977871;28;20191;-38
2023/08/17 01:42:26;;;;;;;8.35;7.10;;;19.10;99.90;;;;;;4968847;28;20199;-39
2023/08/17 01:44:54;;;;;;;8.35;7.38;;;19.10;99.90;;;;;;4968506;28;20746;-37
2023/08/17 01:47:22;;;;;;;10.48;8.23;;;19.20;99.90;;;;;;4967784;28;20214;-37
2023/08/17 01:49:49;;;;;;;10.23;7.82;;;19.20;99.90;;;;;;4970356;28;20247;-37
2023/08/17 01:52:15;;;;;;;8.63;7.65;;;19.20;99.90;;;;;;4974038;28;20214;-35
2023/08/17 01:54:41;;;;;;;10.23;8.35;;;19.20;99.90;;;;;;4969622;28;20175;-39
2023/08/17 01:57:07;;;;;;;9.60;7.40;;;19.20;99.90;;;;;;4969064;28;20203;-40
2023/08/17 01:59:33;;;;;;;9.75;7.57;;;19.30;99.90;;;;;;4967499;28;20254;-38
2023/08/17 02:01:59;;;;;;;8.80;7.82;;;19.30;99.90;;;;;;4971836;28;20218;-36
2023/08/17 02:04:26;;;;;;;12.38;8.05;;;19.30;99.90;;;;;;4982096;28;20180;-38
2023/08/17 02:06:52;;;;;;;11.68;8.02;;;19.30;99.90;;;;;;4968356;28;20207;-39
2023/08/17 02:09:19;;;;;;;11.48;7.90;;;19.30;99.90;;;;;;4969041;28;20188;-41
2023/08/17 02:11:44;;;;;;;7.63;6.82;;;19.30;99.90;;;;;;4968944;28;20725;-43
2023/08/17 02:14:10;;;;;;;8.80;7.60;;;19.40;99.90;;;;;;4971502;28;20223;-34
2023/08/17 02:16:36;;;;;;;7.63;6.72;;;19.40;99.90;;;;;;4981387;28;20254;-39
2023/08/17 02:19:02;;;;;;;8.05;7.25;;;19.30;99.90;;;;;;4975025;28;20225;-37
2023/08/17 02:21:28;;;;;;;6.45;5.95;;;19.30;99.90;;;;;;4968075;28;20267;-37
2023/08/17 02:23:53;;;;;;;7.43;6.45;;;19.30;99.90;;;;;;4968785;28;20231;-39
2023/08/17 02:26:22;;;;;;;8.13;7.25;;;19.30;99.90;;;;;;4981978;28;20210;-37
2023/08/17 02:28:48;;;;;;;11.00;7.00;;;19.30;99.90;;;;;;4983050;28;20187;-36
2023/08/17 02:31:14;;;;;;;8.02;6.50;;;19.20;99.90;;;;;;4982023;28;20267;-36
2023/08/17 02:33:39;;;;;;;9.40;7.90;;;19.10;99.90;;;;;;4980162;28;20175;-37
2023/08/17 02:36:06;;;;;;;8.48;7.00;;;19.10;99.90;;;;;;4984597;28;20199;-41
2023/08/17 02:38:31;;;;;;;8.45;7.50;;;19.10;99.90;;;;;;4979960;28;20187;-36
2023/08/17 02:40:57;;;;;;;9.10;7.82;;;19.00;99.90;;;;;;4984988;28;20219;-36
2023/08/17 02:43:23;;;;;;;8.00;6.97;;;19.10;99.90;;;;;;4984030;28;20198;-39
2023/08/17 02:45:50;;;;;;;7.88;7.00;;;19.10;99.90;;;;;;4983031;28;20211;-35
2023/08/17 02:48:16;;;;;;;9.30;7.60;;;19.10;99.90;;;;;;4983731;28;20176;-38
2023/08/17 02:50:42;;;;;;;7.53;6.82;;;19.10;99.90;;;;;;4968251;28;20266;-35
2023/08/17 02:53:08;;;;;;;17.98;6.85;;;19.10;99.90;;;;;;4983254;28;20183;-35
2023/08/17 02:55:33;;;;;;;8.68;6.57;;;19.10;99.90;;;;;;4980608;28;20194;-37
2023/08/17 02:57:59;;;;;;;6.60;6.00;;;19.10;99.90;;;;;;4984863;28;20257;-40
2023/08/17 03:00:25;;;;;;;10.38;7.10;;;19.10;99.90;;;;;;4969034;28;20183;-38
2023/08/17 03:02:51;;;;;;;15.90;6.55;;;19.10;99.90;;;;;;4982923;28;20211;-38
2023/08/17 03:05:16;;;;;;;11.65;7.47;;;19.10;99.90;;;;;;4980440;28;20227;-37
2023/08/17 03:07:42;;;;;;;7.80;7.00;;;19.10;99.90;;;;;;4967094;28;20175;-36
2023/08/17 03:10:08;;;;;;;16.13;7.60;;;19.10;99.90;;;;;;4966869;28;20191;-38
2023/08/17 03:12:34;;;;;;;7.47;6.78;;;19.10;99.90;;;;;;4972822;28;20203;-33
2023/08/17 03:15:00;;;;;;;7.43;6.10;;;19.10;99.90;;;;;;4981893;28;20274;-36
2023/08/17 03:17:28;;;;;;;7.63;6.93;;;19.10;99.90;;;;;;4969085;28;20187;-37
2023/08/17 03:19:54;;;;;;;11.07;7.38;;;19.10;99.90;;;;;;4967484;28;20191;-36
2023/08/17 03:22:20;;;;;;;9.27;7.55;;;19.10;99.90;;;;;;4975216;28;20203;-32
2023/08/17 03:24:46;;;;;;;13.95;7.78;;;19.10;99.90;;;;;;4971193;28;20183;-36
2023/08/17 03:27:12;;;;;;;20.73;6.95;;;19.00;99.90;;;;;;4973019;28;20273;-36
2023/08/17 03:29:38;;;;;;;12.13;7.85;;;19.00;99.90;;;;;;4980585;28;20199;-35
2023/08/17 03:32:05;;;;;;;14.43;8.30;;;19.00;99.90;;;;;;4977161;28;20210;-35
2023/08/17 03:34:30;;;;;;;14.15;8.25;;;18.90;99.90;;;;;;4968456;28;20179;-37
2023/08/17 03:36:56;;;;;;;11.68;8.38;;;19.00;99.90;;;;;;4970644;28;20202;-37
2023/08/17 03:39:22;;;;;;;9.10;7.38;;;18.90;99.90;;;;;;4968255;28;20186;-38
2023/08/17 03:41:48;;;;;;;9.30;7.70;;;18.90;99.90;;;;;;4982158;28;20207;-36
2023/08/17 03:44:15;;;;;;;7.53;6.82;;;18.90;99.90;;;;;;4967945;28;20184;-38
2023/08/17 03:46:41;;;;;;;8.30;7.43;;;18.90;99.90;;;;;;4972736;28;20211;-37
2023/08/17 03:49:07;;;;;;;7.05;6.32;;;18.90;99.90;;;;;;4967223;28;20207;-39
2023/08/17 03:51:32;;;;;;;7.70;6.20;;;18.80;99.90;;;;;;4979777;28;20222;-38
2023/08/17 03:53:58;;;;;;;7.47;6.30;;;18.80;99.90;;;;;;4978936;28;20180;-39
2023/08/17 03:56:24;;;;;;;5.80;5.18;;;18.80;99.90;;;;;;4968882;28;20342;-41
2023/08/17 03:58:52;;;;;;;4.50;4.20;;;18.80;99.90;;;;;;4970135;28;20194;-40
2023/08/17 04:01:18;;;;;;;4.00;3.70;;;18.80;99.90;;;;;;4973466;28;20218;-39
2023/08/17 04:03:44;;;;;;;4.35;3.80;;;18.80;99.90;;;;;;4970911;28;20187;-40
2023/08/17 04:06:10;;;;;;;3.63;3.33;;;18.80;99.90;;;;;;4976246;28;20213;-36
2023/08/17 04:08:37;;;;;;;3.72;3.22;;;18.80;99.90;;;;;;4971415;28;20167;-36
2023/08/17 04:11:04;;;;;;;3.30;3.10;;;18.80;99.90;;;;;;4986906;28;20234;-33
2023/08/17 04:13:30;;;;;;;3.63;3.35;;;18.80;99.90;;;;;;4969906;28;20180;-38
2023/08/17 04:15:57;;;;;;;3.95;3.58;;;18.80;99.90;;;;;;4970238;28;20195;-36
2023/08/17 04:18:22;;;;;;;3.97;3.67;;;18.80;99.90;;;;;;4987907;28;20188;-32
2023/08/17 04:20:49;;;;;;;5.80;3.45;;;18.70;99.90;;;;;;4968393;28;20232;-35
2023/08/17 04:23:16;;;;;;;3.60;3.35;;;18.70;99.90;;;;;;4988165;28;20179;-41
2023/08/17 04:25:43;;;;;;;3.38;3.17;;;18.80;99.90;;;;;;4983277;28;20195;-39
2023/08/17 04:28:09;;;;;;;3.55;3.25;;;18.80;99.90;;;;;;4971366;28;20175;-34
2023/08/17 04:30:35;;;;;;;4.13;3.78;;;18.80;99.90;;;;;;4967549;28;20191;-36
2023/08/17 04:33:02;;;;;;;4.75;3.60;;;18.80;99.90;;;;;;4974785;28;20207;-37
2023/08/17 04:35:35;;;;;;;4.45;3.15;;;18.80;99.90;;;;;;4968530;28;20230;-37
2023/08/17 04:38:04;;;;;;;4.20;3.80;;;18.80;99.90;;;;;;4969376;28;20192;-33
2023/08/17 04:40:36;;;;;;;3.65;3.35;;;18.80;99.90;;;;;;4969443;28;20291;-38
2023/08/17 04:43:09;;;;;;;3.72;3.40;;;18.80;99.90;;;;;;5002716;28;20183;-36
2023/08/17 04:45:44;;;;;;;4.40;3.60;;;18.80;99.90;;;;;;4969993;28;20176;-38
2023/08/17 04:48:12;;;;;;;5.55;3.58;;;18.80;99.90;;;;;;4965564;28;20179;-35
2023/08/17 04:50:47;;;;;;;4.50;4.10;;;18.80;99.90;;;;;;4972060;28;20293;-36
2023/08/17 04:53:15;;;;;;;4.13;3.72;;;18.90;99.90;;;;;;5002134;28;20226;-37
2023/08/17 04:55:40;;;;;;;4.45;4.03;;;18.90;99.90;;;;;;4985483;28;20223;-35
2023/08/17 04:58:06;;;;;;;4.38;3.92;;;19.00;99.90;;;;;;4985900;28;20180;-41
2023/08/17 05:00:33;;;;;;;4.45;4.05;;;18.90;99.90;;;;;;4982752;28;20180;-36
2023/08/17 05:02:59;;;;;;;4.68;4.22;;;19.00;99.90;;;;;;4970335;28;20202;-37
2023/08/17 05:05:31;;;;;;;4.63;3.95;;;19.00;99.90;;;;;;4982502;28;20695;-36
2023/08/17 05:07:56;;;;;;;4.10;3.67;;;19.10;99.90;;;;;;4985044;28;20176;-34
2023/08/17 05:10:23;;;;;;;4.35;3.88;;;19.00;99.90;;;;;;4984692;28;20205;-37
2023/08/17 05:12:48;;;;;;;4.07;3.78;;;19.10;99.90;;;;;;4968263;28;20179;-36
2023/08/17 05:15:15;;;;;;;6.63;4.85;;;19.10;99.90;;;;;;4969654;28;20184;-38
2023/08/17 05:17:40;;;;;;;6.20;4.72;;;19.10;99.90;;;;;;4985747;28;20279;-34
2023/08/17 05:20:09;;;;;;;5.95;4.80;;;19.10;99.90;;;;;;4969894;28;20191;-36
2023/08/17 05:22:35;;;;;;;6.63;4.82;;;19.10;99.90;;;;;;4967735;28;20211;-34
2023/08/17 05:25:08;;;;;;;8.45;6.00;;;19.10;99.90;;;;;;4972628;28;20183;-39
2023/08/17 05:27:37;;;;;;;7.20;5.85;;;19.20;99.90;;;;;;4968483;28;20211;-34
2023/08/17 05:30:03;;;;;;;6.40;5.80;;;19.20;99.90;;;;;;4980849;28;20180;-36
2023/08/17 05:32:29;;;;;;;7.90;5.57;;;19.20;99.90;;;;;;4972701;28;20286;-37
2023/08/17 05:34:56;;;;;;;7.75;5.80;;;19.20;99.90;;;;;;4978559;28;20275;-38
2023/08/17 05:37:22;;;;;;;7.00;5.50;;;19.20;99.90;;;;;;4970480;28;20219;-37
2023/08/17 05:39:51;;;;;;;8.82;5.50;;;19.20;99.90;;;;;;4974156;28;20187;-34
2023/08/17 05:42:19;;;;;;;5.65;4.72;;;19.20;99.90;;;;;;4969748;28;20203;-34
2023/08/17 05:44:50;;;;;;;9.65;6.20;;;19.30;99.90;;;;;;4988544;28;20198;-35
2023/08/17 05:47:20;;;;;;;6.32;5.65;;;19.30;99.90;;;;;;4979760;28;20373;-35
2023/08/17 05:49:46;;;;;;;9.13;6.38;;;19.30;99.90;;;;;;4969624;28;20191;-37
2023/08/17 05:52:13;;;;;;;9.25;5.63;;;19.40;99.90;;;;;;4966356;28;20282;-33
2023/08/17 05:54:38;;;;;;;8.63;6.40;;;19.40;99.90;;;;;;4972873;28;20184;-35
2023/08/17 05:57:04;;;;;;;9.68;7.57;;;19.40;99.90;;;;;;4979993;28;20276;-33
2023/08/17 05:59:30;;;;;;;10.57;6.82;;;19.40;99.90;;;;;;4978616;28;20179;-32
2023/08/17 06:01:57;;;;;;;9.75;6.90;;;19.40;99.90;;;;;;4988155;28;20207;-33
2023/08/17 06:04:23;;;;;;;9.75;6.75;;;19.50;99.90;;;;;;4975163;28;20184;-35
2023/08/17 06:06:49;;;;;;;6.70;5.93;;;19.50;99.90;;;;;;4985302;28;20226;-37
2023/08/17 06:09:15;;;;;;;5.72;4.97;;;19.50;99.90;;;;;;4973801;28;20195;-37
2023/08/17 06:11:41;;;;;;;5.20;4.70;;;19.50;99.90;;;;;;4990255;28;20199;-38
2023/08/17 06:14:07;;;;;;;6.82;4.82;;;19.50;99.90;;;;;;4971673;28;20666;-38
2023/08/17 06:16:36;;;;;;;7.20;5.32;;;19.50;99.90;;;;;;4987919;28;20277;-35
2023/08/17 06:19:02;;;;;;;6.45;5.47;;;19.50;99.90;;;;;;4974006;28;20222;-35
2023/08/17 06:21:29;;;;;;;6.03;5.00;;;19.50;99.90;;;;;;4960794;28;20204;-34
2023/08/17 06:23:55;;;;;;;7.43;5.15;;;19.50;99.90;;;;;;4967224;28;20184;-36
2023/08/17 06:26:21;;;;;;;9.13;6.18;;;19.50;99.90;;;;;;4974197;28;20254;-34
2023/08/17 06:28:48;;;;;;;11.10;6.60;;;19.60;99.90;;;;;;4976083;28;20231;-34
2023/08/17 06:31:17;;;;;;;7.75;5.40;;;19.60;99.90;;;;;;4969415;28;20204;-35
2023/08/17 06:33:43;;;;;;;6.53;5.78;;;19.70;99.90;;;;;;4985011;28;20184;-35
2023/08/17 06:36:13;;;;;;;10.07;6.05;;;19.70;99.90;;;;;;4984702;28;20180;-38
2023/08/17 06:38:39;;;;;;;10.82;7.72;;;19.70;99.90;;;;;;4968960;28;20175;-38
2023/08/17 06:41:06;;;;;;;12.45;8.30;;;19.80;99.90;;;;;;4987297;28;20207;-37
2023/08/17 06:43:33;;;;;;;9.27;7.88;;;19.80;99.90;;;;;;4987032;28;20179;-35
2023/08/17 06:46:00;;;;;;;10.32;7.93;;;19.80;99.90;;;;;;4968149;28;20200;-39
2023/08/17 06:48:26;;;;;;;13.45;8.98;;;19.80;99.90;;;;;;4964981;28;20241;-35
2023/08/17 06:50:52;;;;;;;12.63;8.00;;;19.80;99.90;;;;;;4983183;28;20242;-41
2023/08/17 06:53:18;;;;;;;13.73;9.77;;;19.80;99.90;;;;;;4977904;28;20182;-41
2023/08/17 06:55:45;;;;;;;13.60;9.35;;;19.70;99.90;;;;;;4988193;28;20196;-41
2023/08/17 06:58:11;;;;;;;14.00;11.20;;;19.70;99.90;;;;;;4964645;28;20192;-40
2023/08/17 07:00:40;;;;;;;15.95;11.27;;;19.80;99.90;;;;;;4972743;28;20199;-41
2023/08/17 07:03:06;;;;;;;13.27;11.05;;;19.80;99.90;;;;;;4974025;28;20234;-41
2023/08/17 07:05:32;;;;;;;12.00;9.65;;;19.80;99.90;;;;;;4967900;28;20183;-40
2023/08/17 07:07:59;;;;;;;12.57;10.15;;;19.80;99.90;;;;;;4965526;28;20180;-40
2023/08/17 07:10:25;;;;;;;12.55;10.20;;;19.80;99.90;;;;;;4965955;28;20184;-39
2023/08/17 07:12:51;;;;;;;13.88;10.45;;;19.90;99.90;;;;;;4967526;28;20279;-40
2023/08/17 07:15:17;;;;;;;14.20;10.18;;;20.00;99.90;;;;;;4967083;28;20275;-40
2023/08/17 07:17:43;;;;;;;12.40;10.02;;;20.00;99.90;;;;;;4966170;28;20214;-40
2023/08/17 07:20:12;;;;;;;12.30;9.90;;;20.00;99.90;;;;;;4966016;28;20219;-37
2023/08/17 07:22:41;;;;;;;16.35;10.80;;;20.00;99.90;;;;;;4980188;28;20195;-40
2023/08/17 07:25:08;;;;;;;14.10;10.98;;;20.00;99.90;;;;;;4973229;28;20285;-41
2023/08/17 07:27:36;;;;;;;14.50;10.20;;;20.00;99.90;;;;;;4969464;28;20207;-40
2023/08/17 07:30:02;;;;;;;13.48;10.07;;;20.00;99.90;;;;;;4983612;28;20203;-41
2023/08/17 07:32:28;;;;;;;13.25;9.73;;;20.00;99.90;;;;;;4964956;28;20257;-40
2023/08/17 07:34:54;;;;;;;13.63;10.48;;;20.00;99.90;;;;;;4969828;28;20187;-41
2023/08/17 07:37:21;;;;;;;12.98;10.45;;;20.00;99.90;;;;;;4966002;28;20219;-40
2023/08/17 07:39:49;;;;;;;13.82;9.88;;;20.00;99.90;;;;;;4979956;28;20260;-36
2023/08/17 07:42:15;;;;;;;13.52;9.93;;;20.00;99.90;;;;;;4969401;28;20299;-37
2023/08/17 07:44:43;;;;;;;14.00;10.65;;;20.10;99.90;;;;;;4983833;28;20199;-36
2023/08/17 07:47:09;;;;;;;11.50;8.82;;;20.20;99.90;;;;;;4966664;28;20295;-37
2023/08/17 07:49:35;;;;;;;12.57;10.52;;;20.20;99.90;;;;;;4979381;28;20186;-37
2023/08/17 07:52:01;;;;;;;11.30;9.45;;;20.20;99.90;;;;;;4980902;28;20233;-38
2023/08/17 07:54:27;;;;;;;11.73;9.77;;;20.30;99.90;;;;;;4966795;28;20212;-35
2023/08/17 07:56:53;;;;;;;14.50;10.35;;;20.40;99.90;;;;;;4972593;28;20233;-32
2023/08/17 07:59:19;;;;;;;12.10;10.57;;;20.40;99.90;;;;;;4978697;28;20186;-38
2023/08/17 08:01:44;;;;;;;12.95;10.38;;;20.30;99.90;;;;;;4963238;28;20214;-35
2023/08/17 08:04:10;;;;;;;13.27;10.95;;;20.30;99.90;;;;;;4988366;28;20189;-37
2023/08/17 08:06:36;;;;;;;11.20;9.55;;;20.40;99.90;;;;;;4994110;28;20215;-35
2023/08/17 08:09:02;;;;;;;12.05;9.95;;;20.40;99.90;;;;;;4990489;28;20186;-40
2023/08/17 08:11:29;;;;;;;9.90;8.90;;;20.50;99.90;;;;;;4966449;28;20242;-40
2023/08/17 08:13:55;;;;;;;11.30;10.18;;;20.50;99.90;;;;;;4966517;28;20191;-38
2023/08/17 08:16:21;;;;;;;12.65;10.65;;;20.60;99.90;;;;;;4966193;28;20191;-38
2023/08/17 08:18:47;;;;;;;12.70;10.55;;;20.60;99.90;;;;;;4966110;28;20191;-39
2023/08/17 08:21:13;;;;;;;11.50;10.38;;;20.70;99.90;;;;;;4966994;28;20266;-34
2023/08/17 08:23:39;;;;;;;10.55;9.30;;;20.70;99.90;;;;;;4968168;28;20286;-38
2023/08/17 08:26:04;;;;;;;9.90;9.00;;;20.70;99.90;;;;;;4980173;28;20207;-37
2023/08/17 08:28:30;;;;;;;10.82;9.73;;;20.90;99.90;;;;;;4981713;28;20271;-39
2023/08/17 08:31:02;;;;;;;9.18;8.38;;;21.00;99.90;;;;;;4965683;28;20242;-39
2023/08/17 08:33:28;;;;;;;10.45;9.45;;;21.10;99.90;;;;;;4968386;28;20183;-38
2023/08/17 08:35:54;;;;;;;9.88;8.60;;;21.20;99.90;;;;;;4968592;28;20246;-39
2023/08/17 08:38:20;;;;;;;9.50;8.68;;;21.30;99.90;;;;;;4964560;28;20238;-36
2023/08/17 08:40:47;;;;;;;10.63;9.60;;;21.30;99.90;;;;;;4965808;28;20787;-36
2023/08/17 08:43:14;;;;;;;9.77;8.77;;;21.30;99.90;;;;;;4968319;28;20176;-36
2023/08/17 08:45:42;;;;;;;9.55;8.65;;;21.40;99.90;;;;;;4968525;28;20274;-36
2023/08/17 08:48:09;;;;;;;8.88;8.00;;;21.60;99.90;;;;;;4969807;28;20545;-37
2023/08/17 08:50:36;;;;;;;11.05;10.02;;;21.80;99.90;;;;;;4985833;28;20203;-37
2023/08/17 08:53:06;;;;;;;9.02;8.13;;;21.90;99.90;;;;;;4988804;28;20179;-35
2023/08/17 08:55:38;;;;;;;9.20;8.32;;;22.00;99.90;;;;;;4969885;28;20199;-34
2023/08/17 08:58:05;;;;;;;9.07;8.27;;;22.20;99.90;;;;;;4969551;28;20183;-36
2023/08/17 09:00:32;;;;;;;9.40;8.05;;;22.30;99.90;;;;;;4985468;28;20211;-40
2023/08/17 09:03:01;;;;;;;8.45;7.05;;;22.40;99.90;;;;;;4969296;28;20215;-39
2023/08/17 09:05:27;;;;;;;11.20;9.20;;;22.60;99.90;;;;;;4969447;28;20199;-37
2023/08/17 09:07:54;;;;;;;10.05;8.90;;;22.70;99.90;;;;;;4969857;28;20204;-38
2023/08/17 09:10:20;;;;;;;8.88;7.97;;;22.80;99.90;;;;;;4970261;28;20180;-38
2023/08/17 09:12:49;;;;;;;10.00;9.00;;;22.90;99.90;;;;;;4982882;28;20195;-38
2023/08/17 09:15:15;;;;;;;7.70;7.03;;;23.00;99.90;;;;;;4971597;28;20180;-38
2023/08/17 09:17:42;;;;;;;8.25;7.38;;;23.20;99.90;;;;;;4985303;28;20229;-37
2023/08/17 09:20:09;;;;;;;7.20;6.25;;;23.40;99.90;;;;;;4974895;28;20191;-40
2023/08/17 09:22:40;;;;;;;8.77;7.90;;;23.50;99.90;;;;;;4969019;28;20211;-38
2023/08/17 09:25:07;;;;;;;8.10;7.40;;;23.70;99.90;;;;;;4984734;28;20210;-39
2023/08/17 09:27:33;;;;;;;10.07;9.18;;;23.90;99.90;;;;;;4968127;28;20200;-38
2023/08/17 09:30:06;;;;;;;8.20;7.05;;;23.90;99.90;;;;;;4968749;28;20187;-37
2023/08/17 09:32:33;;;;;;;9.23;8.32;;;24.00;99.90;;;;;;4977798;28;20203;-35
2023/08/17 09:35:06;;;;;;;7.95;7.25;;;24.10;99.90;;;;;;4970018;28;20183;-37
2023/08/17 09:37:33;;;;;;;8.30;7.40;;;24.20;99.90;;;;;;4973909;28;20186;-39
2023/08/17 09:39:59;;;;;;;7.55;6.85;;;24.20;99.90;;;;;;4971056;28;20191;-37
2023/08/17 09:42:27;;;;;;;7.38;6.20;;;24.40;99.90;;;;;;4971653;28;20207;-38
2023/08/17 09:44:53;;;;;;;6.95;6.35;;;24.50;99.90;;;;;;4968950;28;20188;-38
2023/08/17 09:47:22;;;;;;;7.95;7.15;;;24.70;99.90;;;;;;4976536;28;20218;-39
2023/08/17 09:49:53;;;;;;;7.75;6.93;;;24.80;99.90;;;;;;4976075;28;20199;-40
2023/08/17 09:52:20;;;;;;;6.00;5.53;;;24.90;99.90;;;;;;4969365;28;20279;-40
2023/08/17 09:54:48;;;;;;;7.30;6.60;;;24.90;99.90;;;;;;4967837;28;20176;-39
2023/08/17 09:57:15;;;;;;;6.25;5.75;;;24.70;99.90;;;;;;4970047;28;20191;-36
2023/08/17 09:59:41;;;;;;;6.90;6.20;;;24.80;99.90;;;;;;4990646;28;20184;-39
2023/08/17 10:02:28;;;;;;;6.63;6.00;;;24.90;99.90;;;;;;4972449;28;20215;-38
2023/08/17 10:04:57;;;;;;;6.45;5.90;;;24.90;99.90;;;;;;4968053;28;20192;-39
2023/08/17 10:07:30;;;;;;;7.40;6.70;;;24.80;99.90;;;;;;4970827;28;20203;-38
2023/08/17 10:10:02;;;;;;;7.00;6.40;;;25.00;99.90;;;;;;5015107;23;20235;-33
2023/08/17 10:12:41;;;;;;;6.07;5.50;;;25.10;99.90;;;;;;5000442;28;20187;-34
2023/08/17 10:15:11;;;;;;;6.40;5.80;;;25.30;99.90;;;;;;4984852;28;20182;-33
2023/08/17 10:18:07;;;;;;;6.60;6.00;;;25.40;99.90;;;;;;4985016;28;20182;-33
2023/08/17 10:20:35;;;;;;;6.55;5.95;;;25.50;99.90;;;;;;4988729;28;20591;-33
2023/08/17 10:23:17;;;;;;;6.35;5.70;;;25.60;99.90;;;;;;4990110;28;20210;-33
2023/08/17 10:25:43;;;;;;;7.32;6.65;;;25.70;99.90;;;;;;5006516;28;20227;-34
2023/08/17 10:28:10;;;;;;;7.22;6.53;;;25.60;99.90;;;;;;5008181;28;20208;-33
2023/08/17 10:30:38;;;;;;;7.70;6.95;;;25.60;99.90;;;;;;5001353;28;20210;-33
2023/08/17 10:33:06;;;;;;;7.70;6.90;;;25.60;99.90;;;;;;5007931;28;20233;-33
2023/08/17 10:35:36;;;;;;;8.10;7.30;;;25.70;99.90;;;;;;5012677;28;20224;-33
2023/08/17 10:38:04;;;;;;;7.25;6.55;;;25.50;99.90;;;;;;5001027;28;20185;-33
2023/08/17 10:40:36;;;;;;;6.10;5.40;;;25.40;99.90;;;;;;5006642;28;20199;-34
2023/08/17 10:43:02;;;;;;;6.20;5.70;;;25.40;99.90;;;;;;5002091;28;20243;-34
2023/08/17 10:45:35;;;;;;;6.25;5.68;;;25.60;99.90;;;;;;4998008;28;20214;-34
2023/08/17 10:48:07;;;;;;;6.68;6.18;;;25.90;99.90;;;;;;4990288;28;20268;-34
2023/08/17 10:50:37;;;;;;;6.32;5.82;;;26.20;99.90;;;;;;5006707;28;20202;-34
2023/08/17 10:53:15;;;;;;;6.38;5.45;;;26.20;99.90;;;;;;5014765;28;20185;-33
2023/08/17 10:55:49;;;;;;;5.90;5.40;;;26.40;99.90;;;;;;4992012;28;20197;-33
2023/08/17 10:58:14;;;;;;;6.63;6.03;;;26.50;99.90;;;;;;4994103;28;20179;-33
2023/08/17 11:00:42;;;;;;;6.00;5.43;;;26.60;99.90;;;;;;4996377;28;20225;-33
2023/08/17 11:03:17;;;;;;;6.57;5.88;;;26.80;99.90;;;;;;5003550;28;20206;-33
2023/08/17 11:05:49;;;;;;;5.82;5.32;;;26.90;99.90;;;;;;5033923;28;20178;-34
2023/08/17 11:08:31;;;;;;;5.43;4.97;;;27.10;99.90;;;;;;4997648;28;20175;-33
2023/08/17 11:10:59;;;;;;;6.13;5.53;;;27.30;99.90;;;;;;4989267;28;20187;-34
2023/08/17 11:13:28;;;;;;;5.53;5.03;;;27.40;99.90;;;;;;4999497;28;20187;-36
2023/08/17 11:15:53;;;;;;;6.38;5.75;;;27.30;99.90;;;;;;4998706;28;20179;-33
2023/08/17 11:18:21;;;;;;;6.10;5.60;;;27.30;99.90;;;;;;4999016;28;20179;-33
2023/08/17 11:20:48;;;;;;;6.07;5.32;;;27.50;99.90;;;;;;5000234;28;20218;-33
2023/08/17 11:23:14;;;;;;;5.70;5.20;;;27.70;99.90;;;;;;5006210;28;20206;-33
2023/08/17 11:25:44;;;;;;;5.60;5.00;;;28.00;99.90;;;;;;4986727;28;20254;-35
2023/08/17 11:28:10;;;;;;;5.53;5.07;;;28.30;99.90;;;;;;5007089;28;20201;-33
2023/08/17 11:30:38;;;;;;;5.72;5.15;;;28.50;99.90;;;;;;4999960;28;20241;-34
2023/08/17 11:33:05;;;;;;;6.78;4.88;;;28.70;99.90;;;;;;5007713;28;20186;-34
2023/08/17 11:35:31;;;;;;;8.00;5.15;;;28.80;99.90;;;;;;5001270;28;20187;-34
2023/08/17 11:37:57;;;;;;;6.75;4.95;;;28.90;99.90;;;;;;4999899;28;20248;-33
2023/08/17 11:40:25;;;;;;;5.43;5.03;;;28.80;99.90;;;;;;4997770;28;20203;-34
2023/08/17 11:42:51;;;;;;;4.90;4.38;;;28.90;99.90;;;;;;4990990;28;20232;-34
2023/08/17 11:45:18;;;;;;;5.10;4.70;;;28.90;99.90;;;;;;5010984;28;20232;-34
2023/08/17 11:47:44;;;;;;;4.97;4.57;;;29.20;99.90;;;;;;4988133;28;20210;-34
2023/08/17 11:50:11;;;;;;;6.43;5.05;;;29.00;99.90;;;;;;4988281;28;20202;-34
2023/08/17 11:52:38;;;;;;;5.18;4.72;;;28.90;99.90;;;;;;5002336;28;20214;-34
2023/08/17 11:55:09;;;;;;;5.30;4.90;;;28.70;99.90;;;;;;5001055;28;20240;-34
2023/08/17 11:57:38;;;;;;;5.45;4.95;;;28.60;99.90;;;;;;4996139;28;20186;-33
2023/08/17 12:00:06;;;;;;;5.85;4.85;;;28.50;99.90;;;;;;5007072;28;20202;-34
2023/08/17 12:02:37;;;;;;;5.20;4.75;;;28.40;99.90;;;;;;5006108;28;20186;-34
2023/08/17 12:05:06;;;;;;;5.20;4.70;;;28.40;99.90;;;;;;5008651;28;20668;-34
2023/08/17 12:07:32;;;;;;;5.05;4.40;;;28.40;99.90;;;;;;5028894;28;20208;-34
2023/08/17 12:09:58;;;;;;;5.35;4.85;;;28.30;99.90;;;;;;5000943;28;20289;-34
2023/08/17 12:12:25;;;;;;;4.95;4.55;;;28.30;99.90;;;;;;4994509;28;20194;-34
2023/08/17 12:14:55;;;;;;;5.05;4.65;;;28.20;99.90;;;;;;5003907;28;20186;-35
2023/08/17 12:17:24;;;;;;;6.82;4.55;;;28.20;99.90;;;;;;5032099;28;20182;-34
2023/08/17 12:19:56;;;;;;;5.38;4.97;;;28.00;99.90;;;;;;5031637;28;20201;-34
2023/08/17 12:22:27;;;;;;;5.50;5.10;;;27.90;99.90;;;;;;5001490;28;20179;-35
2023/08/17 12:24:53;;;;;;;4.85;4.45;;;27.80;99.90;;;;;;4992565;28;20187;-34
2023/08/17 12:27:23;;;;;;;7.82;4.88;;;27.70;99.90;;;;;;5035760;28;20206;-34
2023/08/17 12:29:51;;;;;;;5.13;4.72;;;27.50;99.90;;;;;;4994034;28;20198;-34
2023/08/17 12:32:20;;;;;;;4.47;4.07;;;27.30;99.90;;;;;;4997005;28;20222;-33
2023/08/17 12:34:46;;;;;;;4.95;4.57;;;27.20;99.90;;;;;;4989224;28;20202;-35
2023/08/17 12:37:18;;;;;;;5.05;4.65;;;27.20;99.90;;;;;;4996074;28;20189;-33
2023/08/17 12:39:45;;;;;;;5.20;4.80;;;27.10;99.90;;;;;;5000381;28;20206;-34
2023/08/17 12:42:10;;;;;;;5.28;4.57;;;27.00;99.90;;;;;;4993506;28;20247;-34
2023/08/17 12:44:36;;;;;;;5.90;5.30;;;27.00;99.90;;;;;;4994422;28;20221;-34